sensor_id;sensor_type;location;lat;lon;timestamp;temperature;humidity
15386;DHT22;7791;47.246;9.648;2023-01-04T00:00:45;5.90;99.90
15386;DHT22;7791;47.246;9.648;2023-01-04T00:03:11;6.00;99.90
15386;DHT22;7791;47.246;9.648;2023-01-04T00:05:36;6.00;99.90
15386;DHT22;7791;47.246;9.648;2023-01-04T00:08:02;6.00;99.90
15386;DHT22;7791;47.246;9.648;2023-01-04T00:10:28;6.10;99.90
15386;DHT22;7791;47.246;9.648;2023-01-04T00:12:54;6.30;99.90
15386;DHT22;7791;47.246;9.648;2023-01-04T00:15:19;6.40;99.90
15386;DHT22;7791;47.246;9.648;2023-01-04T00:17:46;6.50;99.90
15386;DHT22;7791;47.246;9.648;2023-01-04T00:20:12;6.50;99.90
15386;DHT22;7791;47.246;9.648;2023-01-04T00:22:38;6.60;99.90
15386;DHT22;7791;47.246;9.648;2023-01-04T00:25:04;6.50;99.90
15386;DHT22;7791;47.246;9.648;2023-01-04T00:27:30;6.40;99.90
15386;DHT22;7791;47.246;9.648;2023-01-04T00:29:56;6.40;99.90
15386;DHT22;7791;47.246;9.648;2023-01-04T00:32:21;6.40;99.90
15386;DHT22;7791;47.246;9.648;2023-01-04T00:34:48;6.50;99.90
15386;DHT22;7791;47.246;9.648;2023-01-04T00:37:14;6.50;99.90
15386;DHT22;7791;47.246;9.648;2023-01-04T00:39:40;6.50;99.90
15386;DHT22;7791;47.246;9.648;2023-01-04T00:42:05;6.50;99.90
15386;DHT22;7791;47.246;9.648;2023-01-04T00:44:32;6.50;99.90
15386;DHT22;7791;47.246;9.648;2023-01-04T00:46:59;6.60;99.90
15386;DHT22;7791;47.246;9.648;2023-01-04T00:49:26;6.60;99.90
15386;DHT22;7791;47.246;9.648;2023-01-04T00:51:53;6.60;99.90
15386;DHT22;7791;47.246;9.648;2023-01-04T00:54:20;6.60;99.90
15386;DHT22;7791;47.246;9.648;2023-01-04T00:56:46;6.60;99.90
15386;DHT22;7791;47.246;9.648;2023-01-04T00:59:13;6.60;99.90
15386;DHT22;7791;47.246;9.648;2023-01-04T01:01:40;6.60;99.90
15386;DHT22;7791;47.246;9.648;2023-01-04T01:04:06;6.50;99.90
15386;DHT22;7791;47.246;9.648;2023-01-04T01:06:33;6.50;99.90
15386;DHT22;7791;47.246;9.648;2023-01-04T01:09:00;6.40;99.90
15386;DHT22;7791;47.246;9.648;2023-01-04T01:11:26;6.40;99.90
15386;DHT22;7791;47.246;9.648;2023-01-04T01:13:52;6.30;99.90
15386;DHT22;7791;47.246;9.648;2023-01-04T01:16:20;6.10;99.90
15386;DHT22;7791;47.246;9.648;2023-01-04T01:18:46;5.90;99.90
15386;DHT22;7791;47.246;9.648;2023-01-04T01:21:14;5.70;99.90
15386;DHT22;7791;47.246;9.648;2023-01-04T01:23:40;5.60;99.90
15386;DHT22;7791;47.246;9.648;2023-01-04T01:26:10;5.50;99.90
15386;DHT22;7791;47.246;9.648;2023-01-04T01:28:36;5.50;99.90
15386;DHT22;7791;47.246;9.648;2023-01-04T01:31:05;5.30;99.90
15386;DHT22;7791;47.246;9.648;2023-01-04T01:33:30;5.40;99.90
15386;DHT22;7791;47.246;9.648;2023-01-04T01:35:59;5.40;99.90
15386;DHT22;7791;47.246;9.648;2023-01-04T01:38:24;5.40;99.90
15386;DHT22;7791;47.246;9.648;2023-01-04T01:40:50;5.40;99.90
15386;DHT22;7791;47.246;9.648;2023-01-04T01:43:19;5.50;99.90
15386;DHT22;7791;47.246;9.648;2023-01-04T01:45:46;5.50;99.90
15386;DHT22;7791;47.246;9.648;2023-01-04T01:48:15;5.50;99.90
15386;DHT22;7791;47.246;9.648;2023-01-04T01:50:46;5.50;99.90
15386;DHT22;7791;47.246;9.648;2023-01-04T01:53:13;5.50;99.90
15386;DHT22;7791;47.246;9.648;2023-01-04T01:55:39;5.50;99.90
15386;DHT22;7791;47.246;9.648;2023-01-04T01:58:08;5.50;99.90
15386;DHT22;7791;47.246;9.648;2023-01-04T02:00:37;5.50;99.90
15386;DHT22;7791;47.246;9.648;2023-01-04T02:03:11;5.50;99.90
15386;DHT22;7791;47.246;9.648;2023-01-04T02:05:38;5.40;99.90
15386;DHT22;7791;47.246;9.648;2023-01-04T02:08:04;5.30;99.90
15386;DHT22;7791;47.246;9.648;2023-01-04T02:10:31;5.30;99.90
15386;DHT22;7791;47.246;9.648;2023-01-04T02:12:57;5.20;99.90
15386;DHT22;7791;47.246;9.648;2023-01-04T02:15:26;5.20;99.90
15386;DHT22;7791;47.246;9.648;2023-01-04T02:17:58;5.20;99.90
15386;DHT22;7791;47.246;9.648;2023-01-04T02:20:31;5.20;99.90
15386;DHT22;7791;47.246;9.648;2023-01-04T02:26:44;5.30;99.90
15386;DHT22;7791;47.246;9.648;2023-01-04T02:29:41;5.40;99.90
15386;DHT22;7791;47.246;9.648;2023-01-04T02:32:17;5.30;99.90
15386;DHT22;7791;47.246;9.648;2023-01-04T02:34:51;5.30;99.90
15386;DHT22;7791;47.246;9.648;2023-01-04T02:37:24;5.40;99.90
15386;DHT22;7791;47.246;9.648;2023-01-04T02:39:55;5.50;99.90
15386;DHT22;7791;47.246;9.648;2023-01-04T02:42:29;5.60;99.90
15386;DHT22;7791;47.246;9.648;2023-01-04T02:45:00;5.70;99.90
15386;DHT22;7791;47.246;9.648;2023-01-04T02:47:30;5.80;99.90
15386;DHT22;7791;47.246;9.648;2023-01-04T02:49:56;5.80;99.90
15386;DHT22;7791;47.246;9.648;2023-01-04T02:52:22;5.80;99.90
15386;DHT22;7791;47.246;9.648;2023-01-04T02:54:50;5.80;99.90
15386;DHT22;7791;47.246;9.648;2023-01-04T02:57:24;5.90;99.90
15386;DHT22;7791;47.246;9.648;2023-01-04T03:00:12;5.90;99.90
15386;DHT22;7791;47.246;9.648;2023-01-04T03:03:04;5.90;99.90
15386;DHT22;7791;47.246;9.648;2023-01-04T03:05:40;5.90;99.90
15386;DHT22;7791;47.246;9.648;2023-01-04T03:08:15;5.90;99.90
15386;DHT22;7791;47.246;9.648;2023-01-04T03:10:44;5.70;99.90
15386;DHT22;7791;47.246;9.648;2023-01-04T03:13:16;5.60;99.90
15386;DHT22;7791;47.246;9.648;2023-01-04T03:15:45;5.50;99.90
15386;DHT22;7791;47.246;9.648;2023-01-04T03:18:16;5.40;99.90
15386;DHT22;7791;47.246;9.648;2023-01-04T03:20:44;5.30;99.90
15386;DHT22;7791;47.246;9.648;2023-01-04T03:23:13;5.20;99.90
15386;DHT22;7791;47.246;9.648;2023-01-04T03:25:43;5.20;99.90
15386;DHT22;7791;47.246;9.648;2023-01-04T03:28:11;5.10;99.90
15386;DHT22;7791;47.246;9.648;2023-01-04T03:30:45;5.10;99.90
15386;DHT22;7791;47.246;9.648;2023-01-04T03:33:14;5.10;99.90
15386;DHT22;7791;47.246;9.648;2023-01-04T03:35:42;5.10;99.90
15386;DHT22;7791;47.246;9.648;2023-01-04T03:38:12;5.20;99.90
15386;DHT22;7791;47.246;9.648;2023-01-04T03:40:42;5.30;99.90
15386;DHT22;7791;47.246;9.648;2023-01-04T03:43:14;5.40;99.90
15386;DHT22;7791;47.246;9.648;2023-01-04T03:45:44;5.50;99.90
15386;DHT22;7791;47.246;9.648;2023-01-04T03:48:16;5.50;99.90
15386;DHT22;7791;47.246;9.648;2023-01-04T03:50:49;5.50;99.90
15386;DHT22;7791;47.246;9.648;2023-01-04T03:53:16;5.40;99.90
15386;DHT22;7791;47.246;9.648;2023-01-04T03:55:44;5.40;99.90
15386;DHT22;7791;47.246;9.648;2023-01-04T03:58:11;5.40;99.90
15386;DHT22;7791;47.246;9.648;2023-01-04T04:00:37;5.40;99.90
15386;DHT22;7791;47.246;9.648;2023-01-04T04:03:04;5.40;99.90
15386;DHT22;7791;47.246;9.648;2023-01-04T04:05:33;5.50;99.90
15386;DHT22;7791;47.246;9.648;2023-01-04T04:08:00;5.60;99.90
15386;DHT22;7791;47.246;9.648;2023-01-04T04:10:25;5.60;99.90
15386;DHT22;7791;47.246;9.648;2023-01-04T04:12:51;5.60;99.90
15386;DHT22;7791;47.246;9.648;2023-01-04T04:15:17;5.50;99.90
15386;DHT22;7791;47.246;9.648;2023-01-04T04:17:43;5.60;99.90
15386;DHT22;7791;47.246;9.648;2023-01-04T04:20:10;5.60;99.90
15386;DHT22;7791;47.246;9.648;2023-01-04T04:22:37;5.60;99.90
15386;DHT22;7791;47.246;9.648;2023-01-04T04:25:03;5.50;99.90
15386;DHT22;7791;47.246;9.648;2023-01-04T04:27:28;5.30;99.90
15386;DHT22;7791;47.246;9.648;2023-01-04T04:29:54;5.40;99.90
15386;DHT22;7791;47.246;9.648;2023-01-04T04:32:20;5.40;99.90
15386;DHT22;7791;47.246;9.648;2023-01-04T04:34:45;5.40;99.90
15386;DHT22;7791;47.246;9.648;2023-01-04T04:37:11;5.40;99.90
15386;DHT22;7791;47.246;9.648;2023-01-04T04:39:38;5.40;99.90
15386;DHT22;7791;47.246;9.648;2023-01-04T04:42:04;5.40;99.90
15386;DHT22;7791;47.246;9.648;2023-01-04T04:44:29;5.40;99.90
15386;DHT22;7791;47.246;9.648;2023-01-04T04:46:55;5.40;99.90
15386;DHT22;7791;47.246;9.648;2023-01-04T04:49:21;5.40;99.90
15386;DHT22;7791;47.246;9.648;2023-01-04T04:51:46;5.40;99.90
15386;DHT22;7791;47.246;9.648;2023-01-04T04:54:15;5.40;99.90
15386;DHT22;7791;47.246;9.648;2023-01-04T04:56:42;5.30;99.90
15386;DHT22;7791;47.246;9.648;2023-01-04T04:59:08;5.20;99.90
15386;DHT22;7791;47.246;9.648;2023-01-04T05:01:33;5.20;99.90
15386;DHT22;7791;47.246;9.648;2023-01-04T05:03:59;5.20;99.90
15386;DHT22;7791;47.246;9.648;2023-01-04T05:06:25;5.20;99.90
15386;DHT22;7791;47.246;9.648;2023-01-04T05:08:51;5.10;99.90
15386;DHT22;7791;47.246;9.648;2023-01-04T05:11:16;5.10;99.90
15386;DHT22;7791;47.246;9.648;2023-01-04T05:13:43;5.10;99.90
15386;DHT22;7791;47.246;9.648;2023-01-04T05:16:09;5.10;99.90
15386;DHT22;7791;47.246;9.648;2023-01-04T05:18:35;5.10;99.90
15386;DHT22;7791;47.246;9.648;2023-01-04T05:21:01;5.10;99.90
15386;DHT22;7791;47.246;9.648;2023-01-04T05:23:27;5.10;99.90
15386;DHT22;7791;47.246;9.648;2023-01-04T05:25:56;5.10;99.90
15386;DHT22;7791;47.246;9.648;2023-01-04T05:28:23;5.10;99.90
15386;DHT22;7791;47.246;9.648;2023-01-04T05:30:50;5.00;99.90
15386;DHT22;7791;47.246;9.648;2023-01-04T05:33:17;4.90;99.90
15386;DHT22;7791;47.246;9.648;2023-01-04T05:35:43;4.90;99.90
15386;DHT22;7791;47.246;9.648;2023-01-04T05:38:09;4.80;99.90
15386;DHT22;7791;47.246;9.648;2023-01-04T05:40:34;4.70;99.90
15386;DHT22;7791;47.246;9.648;2023-01-04T05:43:00;4.60;99.90
15386;DHT22;7791;47.246;9.648;2023-01-04T05:45:26;4.40;99.90
15386;DHT22;7791;47.246;9.648;2023-01-04T05:47:53;4.30;99.90
15386;DHT22;7791;47.246;9.648;2023-01-04T05:50:20;4.30;99.90
15386;DHT22;7791;47.246;9.648;2023-01-04T05:52:46;4.20;99.90
15386;DHT22;7791;47.246;9.648;2023-01-04T05:55:12;4.10;99.90
15386;DHT22;7791;47.246;9.648;2023-01-04T05:57:38;4.00;99.90
15386;DHT22;7791;47.246;9.648;2023-01-04T06:00:05;3.90;99.90
15386;DHT22;7791;47.246;9.648;2023-01-04T06:02:31;3.80;99.90
15386;DHT22;7791;47.246;9.648;2023-01-04T06:04:59;3.80;99.90
15386;DHT22;7791;47.246;9.648;2023-01-04T06:07:25;3.90;99.90
15386;DHT22;7791;47.246;9.648;2023-01-04T06:09:50;3.90;99.90
15386;DHT22;7791;47.246;9.648;2023-01-04T06:12:16;3.80;99.90
15386;DHT22;7791;47.246;9.648;2023-01-04T06:14:42;3.80;99.90
15386;DHT22;7791;47.246;9.648;2023-01-04T06:17:08;3.70;99.90
15386;DHT22;7791;47.246;9.648;2023-01-04T06:19:34;3.70;99.90
15386;DHT22;7791;47.246;9.648;2023-01-04T06:22:01;3.70;99.90
15386;DHT22;7791;47.246;9.648;2023-01-04T06:24:27;3.60;99.90
15386;DHT22;7791;47.246;9.648;2023-01-04T06:26:52;3.60;99.90
15386;DHT22;7791;47.246;9.648;2023-01-04T06:29:18;3.60;99.90
15386;DHT22;7791;47.246;9.648;2023-01-04T06:31:44;3.50;99.90
15386;DHT22;7791;47.246;9.648;2023-01-04T06:34:10;3.50;99.90
15386;DHT22;7791;47.246;9.648;2023-01-04T06:36:36;3.50;99.90
15386;DHT22;7791;47.246;9.648;2023-01-04T06:39:04;3.60;99.90
15386;DHT22;7791;47.246;9.648;2023-01-04T06:41:30;3.50;99.90
15386;DHT22;7791;47.246;9.648;2023-01-04T06:43:55;3.50;99.90
15386;DHT22;7791;47.246;9.648;2023-01-04T06:46:21;3.50;99.90
15386;DHT22;7791;47.246;9.648;2023-01-04T06:48:47;3.60;99.90
15386;DHT22;7791;47.246;9.648;2023-01-04T06:51:12;3.60;99.90
15386;DHT22;7791;47.246;9.648;2023-01-04T06:53:38;3.70;99.90
15386;DHT22;7791;47.246;9.648;2023-01-04T06:56:06;3.60;99.90
15386;DHT22;7791;47.246;9.648;2023-01-04T06:58:32;3.70;99.90
15386;DHT22;7791;47.246;9.648;2023-01-04T07:00:57;3.70;99.90
15386;DHT22;7791;47.246;9.648;2023-01-04T07:03:23;3.70;99.90
15386;DHT22;7791;47.246;9.648;2023-01-04T07:05:49;3.70;99.90
15386;DHT22;7791;47.246;9.648;2023-01-04T07:08:14;3.70;99.90
15386;DHT22;7791;47.246;9.648;2023-01-04T07:10:40;3.60;99.90
15386;DHT22;7791;47.246;9.648;2023-01-04T07:13:08;3.60;99.90
15386;DHT22;7791;47.246;9.648;2023-01-04T07:15:34;3.70;99.90
15386;DHT22;7791;47.246;9.648;2023-01-04T07:18:00;3.80;99.90
15386;DHT22;7791;47.246;9.648;2023-01-04T07:20:26;3.90;99.90
15386;DHT22;7791;47.246;9.648;2023-01-04T07:22:52;4.00;99.90
15386;DHT22;7791;47.246;9.648;2023-01-04T07:25:18;4.10;99.90
15386;DHT22;7791;47.246;9.648;2023-01-04T07:27:43;4.30;99.90
15386;DHT22;7791;47.246;9.648;2023-01-04T07:30:12;4.40;99.90
15386;DHT22;7791;47.246;9.648;2023-01-04T07:32:38;4.50;99.90
15386;DHT22;7791;47.246;9.648;2023-01-04T07:35:04;4.50;99.90
15386;DHT22;7791;47.246;9.648;2023-01-04T07:37:30;4.60;99.90
15386;DHT22;7791;47.246;9.648;2023-01-04T07:39:55;4.70;99.90
15386;DHT22;7791;47.246;9.648;2023-01-04T07:42:21;4.70;99.90
15386;DHT22;7791;47.246;9.648;2023-01-04T07:44:47;4.70;99.90
15386;DHT22;7791;47.246;9.648;2023-01-04T07:47:14;4.70;99.90
15386;DHT22;7791;47.246;9.648;2023-01-04T07:49:39;4.70;99.90
15386;DHT22;7791;47.246;9.648;2023-01-04T07:52:05;4.70;99.90
15386;DHT22;7791;47.246;9.648;2023-01-04T07:54:31;4.70;99.90
15386;DHT22;7791;47.246;9.648;2023-01-04T07:56:56;4.70;99.90
15386;DHT22;7791;47.246;9.648;2023-01-04T07:59:22;4.60;99.90
15386;DHT22;7791;47.246;9.648;2023-01-04T08:01:48;4.60;99.90
15386;DHT22;7791;47.246;9.648;2023-01-04T08:04:16;4.60;99.90
15386;DHT22;7791;47.246;9.648;2023-01-04T08:06:43;4.60;99.90
15386;DHT22;7791;47.246;9.648;2023-01-04T08:09:10;4.70;99.90
15386;DHT22;7791;47.246;9.648;2023-01-04T08:11:36;4.70;99.90
15386;DHT22;7791;47.246;9.648;2023-01-04T08:14:02;4.80;99.90
15386;DHT22;7791;47.246;9.648;2023-01-04T08:16:30;4.90;99.90
15386;DHT22;7791;47.246;9.648;2023-01-04T08:18:57;5.20;99.90
15386;DHT22;7791;47.246;9.648;2023-01-04T08:21:25;5.20;99.90
15386;DHT22;7791;47.246;9.648;2023-01-04T08:23:52;5.50;99.90
15386;DHT22;7791;47.246;9.648;2023-01-04T08:26:18;5.80;99.90
15386;DHT22;7791;47.246;9.648;2023-01-04T08:28:44;6.10;99.90
15386;DHT22;7791;47.246;9.648;2023-01-04T08:31:13;6.70;99.90
15386;DHT22;7791;47.246;9.648;2023-01-04T08:33:40;7.70;99.90
15386;DHT22;7791;47.246;9.648;2023-01-04T08:36:07;8.90;99.90
15386;DHT22;7791;47.246;9.648;2023-01-04T08:38:35;9.50;99.90
15386;DHT22;7791;47.246;9.648;2023-01-04T08:41:00;10.20;99.90
15386;DHT22;7791;47.246;9.648;2023-01-04T08:43:26;10.70;99.90
15386;DHT22;7791;47.246;9.648;2023-01-04T08:45:52;10.60;99.90
15386;DHT22;7791;47.246;9.648;2023-01-04T08:48:17;10.30;99.90
15386;DHT22;7791;47.246;9.648;2023-01-04T08:50:43;9.90;99.90
15386;DHT22;7791;47.246;9.648;2023-01-04T08:53:09;9.60;99.90
15386;DHT22;7791;47.246;9.648;2023-01-04T08:55:36;9.50;99.90
15386;DHT22;7791;47.246;9.648;2023-01-04T08:58:02;9.40;99.90
15386;DHT22;7791;47.246;9.648;2023-01-04T09:00:27;9.40;99.90
15386;DHT22;7791;47.246;9.648;2023-01-04T09:02:53;9.70;99.90
15386;DHT22;7791;47.246;9.648;2023-01-04T09:05:19;10.60;99.90
15386;DHT22;7791;47.246;9.648;2023-01-04T09:07:45;11.90;99.90
15386;DHT22;7791;47.246;9.648;2023-01-04T09:10:10;12.40;99.90
15386;DHT22;7791;47.246;9.648;2023-01-04T09:12:37;12.90;99.90
15386;DHT22;7791;47.246;9.648;2023-01-04T09:15:04;13.30;99.90
15386;DHT22;7791;47.246;9.648;2023-01-04T09:17:30;13.70;99.90
15386;DHT22;7791;47.246;9.648;2023-01-04T09:19:56;14.00;99.90
15386;DHT22;7791;47.246;9.648;2023-01-04T09:22:21;14.60;99.90
15386;DHT22;7791;47.246;9.648;2023-01-04T09:24:47;14.90;99.90
15386;DHT22;7791;47.246;9.648;2023-01-04T09:27:13;14.70;99.90
15386;DHT22;7791;47.246;9.648;2023-01-04T09:29:40;14.20;99.90
15386;DHT22;7791;47.246;9.648;2023-01-04T09:32:05;13.70;99.90
15386;DHT22;7791;47.246;9.648;2023-01-04T09:34:31;13.30;99.90
15386;DHT22;7791;47.246;9.648;2023-01-04T09:36:57;12.90;99.90
15386;DHT22;7791;47.246;9.648;2023-01-04T09:39:22;12.50;99.90
15386;DHT22;7791;47.246;9.648;2023-01-04T09:41:53;12.30;99.90
15386;DHT22;7791;47.246;9.648;2023-01-04T09:44:30;12.00;99.90
15386;DHT22;7791;47.246;9.648;2023-01-04T09:47:02;12.00;99.90
15386;DHT22;7791;47.246;9.648;2023-01-04T09:49:31;11.90;99.90
15386;DHT22;7791;47.246;9.648;2023-01-04T09:52:02;11.90;99.90
15386;DHT22;7791;47.246;9.648;2023-01-04T09:54:34;11.90;99.90
15386;DHT22;7791;47.246;9.648;2023-01-04T09:57:02;11.80;99.90
15386;DHT22;7791;47.246;9.648;2023-01-04T09:59:30;12.00;99.90
15386;DHT22;7791;47.246;9.648;2023-01-04T10:02:00;11.80;99.90
15386;DHT22;7791;47.246;9.648;2023-01-04T10:04:35;12.00;99.90
15386;DHT22;7791;47.246;9.648;2023-01-04T10:07:04;12.10;99.90
15386;DHT22;7791;47.246;9.648;2023-01-04T10:09:30;12.20;99.90
15386;DHT22;7791;47.246;9.648;2023-01-04T10:12:07;12.20;99.90
15386;DHT22;7791;47.246;9.648;2023-01-04T10:14:47;12.20;99.90
15386;DHT22;7791;47.246;9.648;2023-01-04T10:17:28;12.10;99.90
15386;DHT22;7791;47.246;9.648;2023-01-04T10:20:10;12.00;99.90
15386;DHT22;7791;47.246;9.648;2023-01-04T10:22:44;11.90;99.90
15386;DHT22;7791;47.246;9.648;2023-01-04T10:25:23;11.80;99.90
15386;DHT22;7791;47.246;9.648;2023-01-04T10:28:03;11.80;99.90
15386;DHT22;7791;47.246;9.648;2023-01-04T10:30:37;11.70;99.90
15386;DHT22;7791;47.246;9.648;2023-01-04T10:33:11;11.60;99.90
15386;DHT22;7791;47.246;9.648;2023-01-04T10:35:37;11.50;99.90
15386;DHT22;7791;47.246;9.648;2023-01-04T10:38:11;11.30;99.90
15386;DHT22;7791;47.246;9.648;2023-01-04T10:40:39;11.30;99.90
15386;DHT22;7791;47.246;9.648;2023-01-04T10:43:13;11.20;99.90
15386;DHT22;7791;47.246;9.648;2023-01-04T10:45:45;11.00;99.90
15386;DHT22;7791;47.246;9.648;2023-01-04T10:48:19;10.90;99.90
15386;DHT22;7791;47.246;9.648;2023-01-04T10:50:53;10.90;99.90
15386;DHT22;7791;47.246;9.648;2023-01-04T10:53:22;10.80;99.90
15386;DHT22;7791;47.246;9.648;2023-01-04T10:55:54;10.90;99.90
15386;DHT22;7791;47.246;9.648;2023-01-04T10:58:25;10.80;99.90
15386;DHT22;7791;47.246;9.648;2023-01-04T11:00:55;10.50;99.90
15386;DHT22;7791;47.246;9.648;2023-01-04T11:03:26;10.40;99.90
15386;DHT22;7791;47.246;9.648;2023-01-04T11:05:56;10.30;99.90
15386;DHT22;7791;47.246;9.648;2023-01-04T11:08:29;10.30;99.90
15386;DHT22;7791;47.246;9.648;2023-01-04T11:10:58;10.20;99.90
15386;DHT22;7791;47.246;9.648;2023-01-04T11:13:25;10.30;99.90
15386;DHT22;7791;47.246;9.648;2023-01-04T11:15:51;10.20;99.90
15386;DHT22;7791;47.246;9.648;2023-01-04T11:18:17;9.90;99.90
15386;DHT22;7791;47.246;9.648;2023-01-04T11:20:44;9.50;99.90
15386;DHT22;7791;47.246;9.648;2023-01-04T11:23:13;9.60;99.90
15386;DHT22;7791;47.246;9.648;2023-01-04T11:25:43;9.60;99.90
15386;DHT22;7791;47.246;9.648;2023-01-04T11:28:15;9.80;99.90
15386;DHT22;7791;47.246;9.648;2023-01-04T11:30:53;9.90;99.90
15386;DHT22;7791;47.246;9.648;2023-01-04T11:33:22;9.90;99.90
15386;DHT22;7791;47.246;9.648;2023-01-04T11:35:51;9.90;99.90
15386;DHT22;7791;47.246;9.648;2023-01-04T11:38:21;9.90;99.90
15386;DHT22;7791;47.246;9.648;2023-01-04T11:40:56;9.80;99.90
15386;DHT22;7791;47.246;9.648;2023-01-04T11:43:23;9.90;99.90
15386;DHT22;7791;47.246;9.648;2023-01-04T11:45:53;9.90;99.90
15386;DHT22;7791;47.246;9.648;2023-01-04T11:48:30;9.90;99.90
15386;DHT22;7791;47.246;9.648;2023-01-04T11:50:57;9.80;99.90
15386;DHT22;7791;47.246;9.648;2023-01-04T11:53:26;9.80;99.90
15386;DHT22;7791;47.246;9.648;2023-01-04T11:56:09;9.80;99.90
15386;DHT22;7791;47.246;9.648;2023-01-04T11:58:34;9.80;99.90
15386;DHT22;7791;47.246;9.648;2023-01-04T12:01:00;9.90;99.90
15386;DHT22;7791;47.246;9.648;2023-01-04T12:03:28;9.80;99.90
15386;DHT22;7791;47.246;9.648;2023-01-04T12:05:55;9.80;99.90
15386;DHT22;7791;47.246;9.648;2023-01-04T12:08:28;9.80;99.90
15386;DHT22;7791;47.246;9.648;2023-01-04T12:10:58;9.70;99.90
15386;DHT22;7791;47.246;9.648;2023-01-04T12:13:24;9.80;99.90
15386;DHT22;7791;47.246;9.648;2023-01-04T12:15:58;9.90;99.90
15386;DHT22;7791;47.246;9.648;2023-01-04T12:18:28;9.90;99.90
15386;DHT22;7791;47.246;9.648;2023-01-04T12:20:55;9.80;99.90
15386;DHT22;7791;47.246;9.648;2023-01-04T12:23:21;9.60;99.90
15386;DHT22;7791;47.246;9.648;2023-01-04T12:25:50;9.60;99.90
15386;DHT22;7791;47.246;9.648;2023-01-04T12:28:40;9.50;99.90
15386;DHT22;7791;47.246;9.648;2023-01-04T12:31:26;9.40;99.90
15386;DHT22;7791;47.246;9.648;2023-01-04T12:33:53;9.50;99.90
15386;DHT22;7791;47.246;9.648;2023-01-04T12:36:20;9.40;99.90
15386;DHT22;7791;47.246;9.648;2023-01-04T12:39:26;9.50;99.90
15386;DHT22;7791;47.246;9.648;2023-01-04T12:42:15;9.70;99.90
15386;DHT22;7791;47.246;9.648;2023-01-04T12:47:44;10.00;99.90
15386;DHT22;7791;47.246;9.648;2023-01-04T12:50:11;10.00;99.90
15386;DHT22;7791;47.246;9.648;2023-01-04T12:52:40;9.90;99.90
15386;DHT22;7791;47.246;9.648;2023-01-04T12:58:42;9.90;99.90
15386;DHT22;7791;47.246;9.648;2023-01-04T13:01:29;10.00;99.90
15386;DHT22;7791;47.246;9.648;2023-01-04T13:03:57;9.70;99.90
15386;DHT22;7791;47.246;9.648;2023-01-04T13:06:23;9.60;99.90
15386;DHT22;7791;47.246;9.648;2023-01-04T13:08:51;9.70;99.90
15386;DHT22;7791;47.246;9.648;2023-01-04T13:11:30;9.80;99.90
15386;DHT22;7791;47.246;9.648;2023-01-04T13:19:15;10.10;99.90
15386;DHT22;7791;47.246;9.648;2023-01-04T13:21:45;10.10;99.90
15386;DHT22;7791;47.246;9.648;2023-01-04T13:24:19;10.00;99.90
15386;DHT22;7791;47.246;9.648;2023-01-04T13:26:46;9.90;99.90
15386;DHT22;7791;47.246;9.648;2023-01-04T13:29:15;9.70;99.90
15386;DHT22;7791;47.246;9.648;2023-01-04T13:31:50;9.60;99.90
15386;DHT22;7791;47.246;9.648;2023-01-04T13:34:26;9.60;99.90
15386;DHT22;7791;47.246;9.648;2023-01-04T13:36:55;9.60;99.90
15386;DHT22;7791;47.246;9.648;2023-01-04T13:39:21;9.60;99.90
15386;DHT22;7791;47.246;9.648;2023-01-04T13:47:56;10.00;99.90
15386;DHT22;7791;47.246;9.648;2023-01-04T13:50:35;10.00;99.90
15386;DHT22;7791;47.246;9.648;2023-01-04T13:53:01;10.00;99.90
15386;DHT22;7791;47.246;9.648;2023-01-04T13:55:29;10.00;99.90
15386;DHT22;7791;47.246;9.648;2023-01-04T14:01:00;10.10;99.90
15386;DHT22;7791;47.246;9.648;2023-01-04T14:03:39;10.10;99.90
15386;DHT22;7791;47.246;9.648;2023-01-04T14:06:28;10.10;99.90
15386;DHT22;7791;47.246;9.648;2023-01-04T14:09:02;10.10;99.90
15386;DHT22;7791;47.246;9.648;2023-01-04T14:11:31;10.20;99.90
15386;DHT22;7791;47.246;9.648;2023-01-04T14:13:57;10.20;99.90
15386;DHT22;7791;47.246;9.648;2023-01-04T14:16:24;10.20;99.90
15386;DHT22;7791;47.246;9.648;2023-01-04T14:18:50;10.20;99.90
15386;DHT22;7791;47.246;9.648;2023-01-04T14:21:17;10.00;99.90
15386;DHT22;7791;47.246;9.648;2023-01-04T14:23:44;10.00;99.90
15386;DHT22;7791;47.246;9.648;2023-01-04T14:26:28;9.90;99.90
15386;DHT22;7791;47.246;9.648;2023-01-04T14:28:53;9.90;99.90
15386;DHT22;7791;47.246;9.648;2023-01-04T14:31:34;9.80;99.90
15386;DHT22;7791;47.246;9.648;2023-01-04T14:34:11;9.60;99.90
15386;DHT22;7791;47.246;9.648;2023-01-04T14:36:38;9.70;99.90
15386;DHT22;7791;47.246;9.648;2023-01-04T14:39:30;9.70;99.90
15386;DHT22;7791;47.246;9.648;2023-01-04T14:41:57;9.50;99.90
15386;DHT22;7791;47.246;9.648;2023-01-04T14:44:24;9.50;99.90
15386;DHT22;7791;47.246;9.648;2023-01-04T14:46:52;9.60;99.90
15386;DHT22;7791;47.246;9.648;2023-01-04T14:49:19;9.50;99.90
15386;DHT22;7791;47.246;9.648;2023-01-04T14:51:47;9.40;99.90
15386;DHT22;7791;47.246;9.648;2023-01-04T14:54:14;9.40;99.90
15386;DHT22;7791;47.246;9.648;2023-01-04T14:56:41;9.50;99.90
15386;DHT22;7791;47.246;9.648;2023-01-04T14:59:31;9.50;99.90
15386;DHT22;7791;47.246;9.648;2023-01-04T15:01:57;9.50;99.90
15386;DHT22;7791;47.246;9.648;2023-01-04T15:04:23;9.10;99.90
15386;DHT22;7791;47.246;9.648;2023-01-04T15:06:50;9.00;99.90
15386;DHT22;7791;47.246;9.648;2023-01-04T15:09:16;9.00;99.90
15386;DHT22;7791;47.246;9.648;2023-01-04T15:11:43;9.10;99.90
15386;DHT22;7791;47.246;9.648;2023-01-04T15:14:09;8.90;99.90
15386;DHT22;7791;47.246;9.648;2023-01-04T15:16:35;8.90;99.90
15386;DHT22;7791;47.246;9.648;2023-01-04T15:19:00;8.90;99.90
15386;DHT22;7791;47.246;9.648;2023-01-04T15:21:26;8.90;99.90
15386;DHT22;7791;47.246;9.648;2023-01-04T15:23:52;8.90;99.90
15386;DHT22;7791;47.246;9.648;2023-01-04T15:26:17;8.70;99.90
15386;DHT22;7791;47.246;9.648;2023-01-04T15:28:44;8.70;99.90
15386;DHT22;7791;47.246;9.648;2023-01-04T15:31:12;8.80;99.90
15386;DHT22;7791;47.246;9.648;2023-01-04T15:33:38;8.80;99.90
15386;DHT22;7791;47.246;9.648;2023-01-04T15:36:06;8.80;99.90
15386;DHT22;7791;47.246;9.648;2023-01-04T15:38:32;8.80;99.90
15386;DHT22;7791;47.246;9.648;2023-01-04T15:41:02;8.80;99.90
15386;DHT22;7791;47.246;9.648;2023-01-04T15:43:28;8.70;99.90
15386;DHT22;7791;47.246;9.648;2023-01-04T15:45:55;8.70;99.90
15386;DHT22;7791;47.246;9.648;2023-01-04T15:48:21;8.60;99.90
15386;DHT22;7791;47.246;9.648;2023-01-04T15:50:46;8.60;99.90
15386;DHT22;7791;47.246;9.648;2023-01-04T15:53:12;8.60;99.90
15386;DHT22;7791;47.246;9.648;2023-01-04T15:55:38;8.60;99.90
15386;DHT22;7791;47.246;9.648;2023-01-04T15:58:04;8.50;99.90
15386;DHT22;7791;47.246;9.648;2023-01-04T16:00:29;8.40;99.90
15386;DHT22;7791;47.246;9.648;2023-01-04T16:02:57;8.40;99.90
15386;DHT22;7791;47.246;9.648;2023-01-04T16:05:22;8.40;99.90
15386;DHT22;7791;47.246;9.648;2023-01-04T16:07:48;8.40;99.90
15386;DHT22;7791;47.246;9.648;2023-01-04T16:10:14;8.50;99.90
15386;DHT22;7791;47.246;9.648;2023-01-04T16:12:40;8.50;99.90
15386;DHT22;7791;47.246;9.648;2023-01-04T16:15:06;8.50;99.90
15386;DHT22;7791;47.246;9.648;2023-01-04T16:17:32;8.40;99.90
15386;DHT22;7791;47.246;9.648;2023-01-04T16:19:59;8.40;99.90
15386;DHT22;7791;47.246;9.648;2023-01-04T16:22:25;8.40;99.90
15386;DHT22;7791;47.246;9.648;2023-01-04T16:24:50;8.40;99.90
15386;DHT22;7791;47.246;9.648;2023-01-04T16:27:16;8.40;99.90
15386;DHT22;7791;47.246;9.648;2023-01-04T16:29:42;8.40;99.90
15386;DHT22;7791;47.246;9.648;2023-01-04T16:32:08;8.40;99.90